Time;durP1;ratioP1;P1;durP2;ratioP2;P2;SDS_P1;SDS_P2;PMS_P1;PMS_P2;Temp;Humidity;BMP_temperature;BMP_pressure;BME280_temperature;BME280_humidity;BME280_pressure;Samples;Min_cycle;Max_cycle;Signal;HPM_P1;HPM_P2
2021/03/22 16:43:52;;;;;;;37.63;22.60;;;3.80;78.10;;;;;;5080189;28;20445;-96
2021/03/22 16:46:24;;;;;;;35.28;22.23;;;3.70;79.60;;;;;;5062526;28;20082;-92
2021/03/22 16:48:51;;;;;;;33.15;21.52;;;3.70;80.90;;;;;;5061329;28;20025;-94
2021/03/22 16:51:18;;;;;;;35.20;22.52;;;3.70;82.00;;;;;;5050270;28;20362;-93
2021/03/22 16:53:45;;;;;;;42.58;24.67;;;3.80;82.70;;;;;;5062489;28;20028;-93
2021/03/22 16:56:13;;;;;;;42.00;25.42;;;3.80;83.30;;;;;;5055183;28;20075;-93
2021/03/22 16:58:39;;;;;;;41.10;26.02;;;3.90;83.40;;;;;;5049455;28;20481;-92
2021/03/22 17:01:08;;;;;;;42.53;26.00;;;3.90;83.40;;;;;;5048949;28;20021;-94
2021/03/22 17:03:33;;;;;;;36.80;23.83;;;3.90;83.30;;;;;;5053642;28;20032;-93
2021/03/22 17:06:00;;;;;;;39.40;24.00;;;4.00;83.40;;;;;;5047515;28;20021;-93
2021/03/22 17:08:30;;;;;;;40.30;25.88;;;4.00;83.40;;;;;;5061542;28;20112;-93
2021/03/22 17:10:59;;;;;;;40.42;25.38;;;4.00;83.40;;;;;;5043414;28;20064;-92
2021/03/22 17:13:26;;;;;;;44.65;27.00;;;4.10;83.40;;;;;;5049190;28;20504;-92
2021/03/22 17:15:53;;;;;;;44.53;25.52;;;4.10;83.40;;;;;;5049254;28;20028;-91
2021/03/22 17:18:19;;;;;;;41.15;25.33;;;4.10;83.40;;;;;;5055184;28;20020;-93
2021/03/22 17:20:44;;;;;;;41.67;25.65;;;4.10;83.40;;;;;;5053204;28;20355;-95
2021/03/22 17:23:11;;;;;;;44.72;25.65;;;4.10;83.30;;;;;;5050214;28;20032;-93
2021/03/22 17:25:38;;;;;;;39.63;25.10;;;4.10;83.20;;;;;;5058507;28;20087;-94
2021/03/22 17:28:04;;;;;;;43.03;25.05;;;4.10;83.10;;;;;;5046130;28;20118;-93
2021/03/22 17:30:33;;;;;;;38.75;24.42;;;4.10;83.10;;;;;;5055550;28;20021;-96
2021/03/22 17:32:58;;;;;;;34.92;22.77;;;4.10;83.10;;;;;;5061680;28;20106;-93
2021/03/22 17:35:27;;;;;;;34.17;23.20;;;4.10;83.20;;;;;;5041907;28;20110;-92
2021/03/22 17:37:53;;;;;;;34.88;22.42;;;4.00;82.90;;;;;;5047103;28;20122;-92
2021/03/22 17:40:22;;;;;;;47.65;23.90;;;4.00;82.90;;;;;;5045048;28;20036;-94
2021/03/22 17:42:48;;;;;;;36.30;23.15;;;4.00;82.60;;;;;;5042124;28;20052;-94
2021/03/22 17:45:15;;;;;;;36.15;24.17;;;4.00;82.60;;;;;;5062397;28;20363;-93
2021/03/22 17:47:41;;;;;;;35.90;24.50;;;3.90;82.70;;;;;;5062868;28;20030;-95
2021/03/22 17:50:08;;;;;;;34.97;23.85;;;3.90;82.70;;;;;;5067975;28;20029;-96
2021/03/22 17:52:34;;;;;;;36.05;22.65;;;3.90;82.70;;;;;;5047918;28;20504;-94
2021/03/22 17:55:03;;;;;;;32.97;21.95;;;3.90;82.70;;;;;;5035432;28;20029;-92
2021/03/22 17:57:29;;;;;;;31.73;21.40;;;3.90;82.70;;;;;;5045202;28;20108;-92
2021/03/22 17:59:55;;;;;;;33.28;21.92;;;3.90;82.70;;;;;;5034729;28;20021;-92
2021/03/22 18:02:22;;;;;;;33.70;21.77;;;3.80;82.70;;;;;;5036041;28;20057;-91
2021/03/22 18:04:48;;;;;;;32.70;21.67;;;3.80;82.80;;;;;;5031471;28;20033;-91
2021/03/22 18:07:16;;;;;;;36.28;22.42;;;3.80;82.80;;;;;;5037541;28;20125;-96
2021/03/22 18:09:42;;;;;;;35.72;23.42;;;3.80;82.90;;;;;;5041247;28;20029;-92
2021/03/22 18:12:09;;;;;;;34.38;22.75;;;3.70;82.90;;;;;;5059499;28;20029;-90
2021/03/22 18:14:35;;;;;;;34.33;21.75;;;3.70;82.90;;;;;;5042649;28;20029;-94
2021/03/22 18:17:01;;;;;;;32.25;21.60;;;3.60;82.90;;;;;;5040847;28;20435;-96
2021/03/22 18:19:27;;;;;;;34.25;22.17;;;3.60;83.10;;;;;;5043678;28;20105;-94
2021/03/22 18:21:54;;;;;;;33.35;20.65;;;3.60;83.50;;;;;;5044173;28;20067;-91
2021/03/22 18:24:20;;;;;;;32.80;20.67;;;3.60;83.20;;;;;;5041528;28;20052;-91
2021/03/22 18:26:46;;;;;;;34.70;23.05;;;3.60;83.20;;;;;;5041886;28;20029;-94
2021/03/22 18:29:11;;;;;;;31.58;20.65;;;3.60;83.20;;;;;;5049787;28;20055;-91
2021/03/22 18:31:39;;;;;;;29.52;20.92;;;3.60;83.20;;;;;;5039966;28;20037;-96
2021/03/22 18:34:05;;;;;;;31.55;20.17;;;3.50;83.30;;;;;;5040419;28;20474;-94
2021/03/22 18:36:31;;;;;;;34.05;21.55;;;3.50;83.30;;;;;;5046074;28;20028;-95
2021/03/22 18:38:57;;;;;;;33.83;21.73;;;3.50;83.20;;;;;;5037697;28;20029;-91
2021/03/22 18:41:24;;;;;;;31.08;20.27;;;3.50;83.20;;;;;;5040838;28;20029;-91
2021/03/22 18:43:49;;;;;;;32.10;20.05;;;3.50;83.40;;;;;;5042534;28;20021;-91
2021/03/22 18:46:15;;;;;;;30.10;19.05;;;3.50;83.50;;;;;;5038846;28;20028;-92
2021/03/22 18:48:41;;;;;;;27.50;18.90;;;3.40;83.50;;;;;;5039478;28;20076;-93
2021/03/22 18:51:08;;;;;;;28.10;18.95;;;3.50;83.60;;;;;;5049828;28;20028;-92
2021/03/22 18:53:33;;;;;;;28.27;19.02;;;3.40;83.70;;;;;;5033130;28;20025;-91
2021/03/22 18:55:59;;;;;;;28.60;19.48;;;3.40;83.70;;;;;;5037448;28;20025;-91
2021/03/22 18:58:25;;;;;;;29.27;19.33;;;3.40;83.80;;;;;;5041257;28;20482;-92
2021/03/22 19:00:51;;;;;;;29.17;19.58;;;3.40;83.80;;;;;;5032161;28;20030;-94
2021/03/22 19:03:20;;;;;;;29.73;19.02;;;3.40;84.50;;;;;;5036092;28;20531;-93
2021/03/22 19:05:47;;;;;;;29.88;19.42;;;3.50;83.90;;;;;;5036454;28;20597;-92
2021/03/22 19:08:13;;;;;;;31.77;19.88;;;3.50;84.00;;;;;;5042717;28;20033;-93
2021/03/22 19:10:41;;;;;;;26.75;17.98;;;3.50;83.80;;;;;;5034487;28;20095;-89
2021/03/22 19:13:08;;;;;;;30.33;19.02;;;3.40;83.90;;;;;;5037250;28;20021;-90
2021/03/22 19:15:34;;;;;;;36.70;18.27;;;3.40;83.90;;;;;;5039525;28;20021;-95
2021/03/22 19:18:00;;;;;;;32.80;20.88;;;3.50;84.10;;;;;;5040209;28;20026;-96
2021/03/22 19:20:27;;;;;;;32.00;20.50;;;3.50;84.10;;;;;;5044499;28;20025;-95
2021/03/22 19:22:57;;;;;;;29.95;19.52;;;3.40;84.00;;;;;;5055053;28;20057;-96
2021/03/22 19:25:29;;;;;;;30.10;19.65;;;3.40;83.90;;;;;;5031764;28;20111;-96
2021/03/22 19:27:55;;;;;;;32.47;20.10;;;3.40;84.00;;;;;;5047814;28;20488;-91
2021/03/22 19:30:31;;;;;;;30.77;20.20;;;3.40;84.60;;;;;;5051657;28;20029;-96
2021/03/22 19:32:58;;;;;;;37.75;19.80;;;3.40;84.10;;;;;;5037888;28;20476;-93
2021/03/22 19:35:28;;;;;;;39.95;20.30;;;3.40;84.20;;;;;;5036437;28;20033;-96
2021/03/22 19:41:26;;;;;;;32.33;20.45;;;3.40;84.30;;;;;;5487002;23;20053;-96
2021/03/22 19:43:53;;;;;;;35.63;22.40;;;3.40;84.30;;;;;;4997277;28;20109;-95
2021/03/22 19:46:19;;;;;;;32.65;20.60;;;3.40;84.40;;;;;;4997289;28;20073;-96
2021/03/22 19:48:45;;;;;;;29.60;20.27;;;3.40;84.50;;;;;;4996722;28;20080;-96
2021/03/22 19:51:14;;;;;;;32.80;22.13;;;3.30;84.60;;;;;;4996360;28;20021;-94
2021/03/22 19:53:40;;;;;;;32.65;20.73;;;3.30;84.80;;;;;;4996447;28;20037;-93
2021/03/22 20:03:51;;;;;;;34.53;19.92;;;3.20;85.00;;;;;;4979414;28;20072;-96
2021/03/22 20:06:19;;;;;;;28.02;19.05;;;3.20;85.00;;;;;;4956691;28;20027;-96
2021/03/22 20:08:46;;;;;;;30.50;19.10;;;3.20;85.00;;;;;;4990667;28;20030;-96
2021/03/22 20:11:13;;;;;;;31.13;18.67;;;3.20;85.10;;;;;;4980177;28;20027;-96
2021/03/22 20:13:57;;;;;;;31.95;19.80;;;3.20;85.10;;;;;;4961601;28;20041;-96
2021/03/22 20:16:27;;;;;;;29.70;18.50;;;3.20;85.20;;;;;;4968736;28;20022;-96
2021/03/22 20:18:53;;;;;;;25.95;17.05;;;3.20;85.20;;;;;;4963525;28;20099;-94
2021/03/22 20:21:23;;;;;;;27.85;16.88;;;3.20;85.20;;;;;;4961587;28;20094;-95
2021/03/22 20:23:50;;;;;;;25.73;17.13;;;3.20;85.20;;;;;;4958669;28;20034;-96
2021/03/22 20:26:17;;;;;;;24.27;16.70;;;3.20;85.40;;;;;;4958043;28;20065;-94
2021/03/22 20:28:43;;;;;;;24.98;16.52;;;3.20;85.30;;;;;;4972828;28;20057;-96
2021/03/22 20:31:13;;;;;;;25.85;16.85;;;3.20;85.30;;;;;;4956707;28;20027;-96
2021/03/22 20:33:42;;;;;;;25.15;17.27;;;3.20;85.30;;;;;;4964922;28;20022;-96
2021/03/22 21:06:28;;;;;;;23.85;14.73;;;2.10;82.40;;;;;;5091909;28;20389;-95
2021/03/22 21:08:54;;;;;;;28.95;16.25;;;2.10;83.40;;;;;;5071971;28;20033;-94
2021/03/22 21:11:20;;;;;;;26.98;14.88;;;2.00;84.80;;;;;;5079129;28;20028;-96
